PWSweather.com
Personal Weather Stations
Station Observations
NBW76
Silver Creek, North Bend, WA 98065

Silver CreekNorth Bend, WA 98065

Lat: 47.4993612, Lon: -121.7783245

Elevation: 443

Station Type: Davisd VP2 + Solar + UV + Webcam

www.northbendweather.com

High Low Average
Temperature 74.7°F23.7°C 34.8°F1.6°C 56.0°F13.3°C
Dew Point 44.0°F6.7°C 27.9°F-2.3°C 35.2°F1.8°C
Winds 8.1 mph 13.0 kmh Calm Calm 2.0 mph S3.2 kmh S
Wind Gusts 17.3 mph27.8 kmh -- 4.0 mph6.4 kmh
Humidity 95% 18% 55%
Pressure 30.34 in1027.4 mb 30.17 in1021.7 mb -
Precipitation 0.00 in0.0 mm - -
Hour Temp Dew Point Humidity Winds Wind Gusts Pressure Precip Precip Rate Daily Precip Total
12:00 AM 41.3°F5.2°C 38.6°F3.7°C 90% Calm Calm -- 30.31 in1026.4 mb - 0.00 in0.0 mm 0.00 in0.0 mm
12:10 AM 41.4°F5.2°C 39.0°F3.9°C 91% Calm Calm -- 30.30 in1026.1 mb - 0.00 in0.0 mm 0.00 in0.0 mm
12:20 AM 41.4°F5.2°C 39.0°F3.9°C 91% Calm Calm -- 30.31 in1026.4 mb - 0.00 in0.0 mm 0.00 in0.0 mm
12:30 AM 41.5°F5.3°C 39.1°F3.9°C 91% Calm Calm -- 30.31 in1026.4 mb - 0.00 in0.0 mm 0.00 in0.0 mm
12:40 AM 41.8°F5.4°C 39.4°F4.1°C 91% Calm Calm -- 30.31 in1026.4 mb - 0.00 in0.0 mm 0.00 in0.0 mm
12:50 AM 41.6°F5.3°C 38.9°F3.8°C 90% Calm Calm -- 30.32 in1026.8 mb - 0.00 in0.0 mm 0.00 in0.0 mm
01:00 AM 41.1°F5.1°C 38.4°F3.6°C 90% Calm Calm -- 30.32 in1026.8 mb - 0.00 in0.0 mm 0.00 in0.0 mm
01:10 AM 40.6°F4.8°C 37.9°F3.3°C 90% Calm Calm -- 30.32 in1026.8 mb - 0.00 in0.0 mm 0.00 in0.0 mm
01:20 AM 40.0°F4.4°C 37.6°F3.1°C 91% Calm Calm -- 30.32 in1026.8 mb - 0.00 in0.0 mm 0.00 in0.0 mm
01:30 AM 39.8°F4.3°C 37.4°F3.0°C 91% Calm Calm -- 30.32 in1026.8 mb - 0.00 in0.0 mm 0.00 in0.0 mm
01:40 AM 39.4°F4.1°C 37.0°F2.8°C 91% Calm Calm -- 30.32 in1026.8 mb - 0.00 in0.0 mm 0.00 in0.0 mm
01:50 AM 39.2°F4.0°C 37.1°F2.8°C 92% Calm Calm -- 30.32 in1026.8 mb - 0.00 in0.0 mm 0.00 in0.0 mm
02:00 AM 38.9°F3.8°C 36.8°F2.7°C 92% Calm Calm -- 30.32 in1026.8 mb - 0.00 in0.0 mm 0.00 in0.0 mm
02:10 AM 38.7°F3.7°C 36.6°F2.6°C 92% Calm Calm -- 30.32 in1026.8 mb - 0.00 in0.0 mm 0.00 in0.0 mm
02:20 AM 38.4°F3.6°C 36.3°F2.4°C 92% Calm Calm -- 30.32 in1026.8 mb - 0.00 in0.0 mm 0.00 in0.0 mm
02:30 AM 38.3°F3.5°C 36.4°F2.4°C 93% Calm Calm -- 30.32 in1026.8 mb - 0.00 in0.0 mm 0.00 in0.0 mm
02:40 AM 38.2°F3.4°C 36.4°F2.4°C 93% 1.2 mph N1.9 kmh N 2.3 mph3.7 kmh 30.32 in1026.8 mb - 0.00 in0.0 mm 0.00 in0.0 mm
02:50 AM 38.4°F3.6°C 36.6°F2.6°C 93% Calm Calm -- 30.32 in1026.8 mb - 0.00 in0.0 mm 0.00 in0.0 mm
03:00 AM 38.1°F3.4°C 36.3°F2.4°C 93% Calm Calm -- 30.32 in1026.8 mb - 0.00 in0.0 mm 0.00 in0.0 mm
03:10 AM 37.9°F3.3°C 36.1°F2.3°C 93% Calm Calm -- 30.32 in1026.8 mb - 0.00 in0.0 mm 0.00 in0.0 mm
03:20 AM 37.7°F3.2°C 35.9°F2.2°C 93% Calm Calm -- 30.32 in1026.8 mb - 0.00 in0.0 mm 0.00 in0.0 mm
03:30 AM 37.6°F3.1°C 35.8°F2.1°C 93% Calm Calm -- 30.32 in1026.8 mb - 0.00 in0.0 mm 0.00 in0.0 mm
03:40 AM 38.5°F3.6°C 36.9°F2.7°C 94% Calm Calm -- 30.32 in1026.8 mb - 0.00 in0.0 mm 0.00 in0.0 mm
03:50 AM 38.0°F3.3°C 36.2°F2.3°C 93% 1.2 mph ESE1.9 kmh ESE 1.2 mph1.9 kmh 30.32 in1026.8 mb - 0.00 in0.0 mm 0.00 in0.0 mm
04:00 AM 38.0°F3.3°C 36.1°F2.3°C 93% 1.2 mph E1.9 kmh E 3.5 mph5.6 kmh 30.32 in1026.8 mb - 0.00 in0.0 mm 0.00 in0.0 mm
04:10 AM 38.0°F3.3°C 36.2°F2.3°C 93% Calm Calm -- 30.32 in1026.8 mb - 0.00 in0.0 mm 0.00 in0.0 mm
04:20 AM 38.6°F3.7°C 36.7°F2.6°C 93% 1.2 mph E1.9 kmh E 3.5 mph5.6 kmh 30.32 in1026.8 mb - 0.00 in0.0 mm 0.00 in0.0 mm
04:30 AM 38.4°F3.6°C 36.6°F2.6°C 93% Calm Calm -- 30.32 in1026.8 mb - 0.00 in0.0 mm 0.00 in0.0 mm
04:40 AM 38.6°F3.7°C 36.5°F2.5°C 92% Calm Calm -- 30.31 in1026.4 mb - 0.00 in0.0 mm 0.00 in0.0 mm
04:50 AM 38.0°F3.3°C 35.9°F2.2°C 92% Calm Calm -- 30.31 in1026.4 mb - 0.00 in0.0 mm 0.00 in0.0 mm
05:00 AM 37.3°F2.9°C 35.2°F1.8°C 92% Calm Calm -- 30.31 in1026.4 mb - 0.00 in0.0 mm 0.00 in0.0 mm
05:10 AM 37.0°F2.8°C 34.9°F1.6°C 92% Calm Calm -- 30.31 in1026.4 mb - 0.00 in0.0 mm 0.00 in0.0 mm
05:20 AM 36.4°F2.4°C 34.3°F1.3°C 92% Calm Calm -- 30.31 in1026.4 mb - 0.00 in0.0 mm 0.00 in0.0 mm
05:30 AM 36.3°F2.4°C 34.5°F1.4°C 93% Calm Calm -- 30.31 in1026.4 mb - 0.00 in0.0 mm 0.00 in0.0 mm
05:40 AM 36.3°F2.4°C 34.5°F1.4°C 93% Calm Calm -- 30.30 in1026.1 mb - 0.00 in0.0 mm 0.00 in0.0 mm
05:50 AM 36.4°F2.4°C 34.6°F1.4°C 93% Calm Calm -- 30.30 in1026.1 mb - 0.00 in0.0 mm 0.00 in0.0 mm
06:00 AM 35.9°F2.2°C 34.1°F1.2°C 93% Calm Calm -- 30.31 in1026.4 mb - 0.00 in0.0 mm 0.00 in0.0 mm
06:10 AM 35.7°F2.1°C 33.9°F1.1°C 93% Calm Calm -- 30.31 in1026.4 mb - 0.00 in0.0 mm 0.00 in0.0 mm
06:20 AM 35.3°F1.8°C 33.5°F0.8°C 93% Calm Calm -- 30.31 in1026.4 mb - 0.00 in0.0 mm 0.00 in0.0 mm
06:30 AM 35.1°F1.7°C 33.3°F0.7°C 93% Calm Calm -- 30.32 in1026.8 mb - 0.00 in0.0 mm 0.00 in0.0 mm
06:40 AM 35.1°F1.7°C 33.5°F0.8°C 94% Calm Calm -- 30.32 in1026.8 mb - 0.00 in0.0 mm 0.00 in0.0 mm
06:50 AM 35.1°F1.7°C 33.5°F0.8°C 94% Calm Calm -- 30.32 in1026.8 mb - 0.00 in0.0 mm 0.00 in0.0 mm
07:00 AM 34.9°F1.6°C 33.3°F0.7°C 94% Calm Calm -- 30.32 in1026.8 mb - 0.00 in0.0 mm 0.00 in0.0 mm
07:10 AM 34.8°F1.6°C 33.2°F0.7°C 94% Calm Calm -- 30.33 in1027.1 mb - 0.00 in0.0 mm 0.00 in0.0 mm
07:20 AM 34.9°F1.6°C 33.3°F0.7°C 94% Calm Calm -- 30.34 in1027.4 mb - 0.00 in0.0 mm 0.00 in0.0 mm
07:30 AM 34.9°F1.6°C 33.3°F0.7°C 94% Calm Calm -- 30.34 in1027.4 mb - 0.00 in0.0 mm 0.00 in0.0 mm
07:40 AM 35.0°F1.7°C 33.4°F0.8°C 94% Calm Calm -- 30.34 in1027.4 mb - 0.00 in0.0 mm 0.00 in0.0 mm
07:50 AM 35.2°F1.8°C 33.7°F0.9°C 94% Calm Calm -- 30.34 in1027.4 mb - 0.00 in0.0 mm 0.00 in0.0 mm
08:00 AM 37.2°F2.9°C 35.9°F2.2°C 95% Calm Calm -- 30.34 in1027.4 mb - 0.00 in0.0 mm 0.00 in0.0 mm
08:10 AM 38.7°F3.7°C 37.3°F2.9°C 95% Calm Calm -- 30.34 in1027.4 mb - 0.00 in0.0 mm 0.00 in0.0 mm
08:20 AM 40.1°F4.5°C 38.8°F3.8°C 95% Calm Calm -- 30.34 in1027.4 mb - 0.00 in0.0 mm 0.00 in0.0 mm
08:30 AM 41.3°F5.2°C 39.7°F4.3°C 94% Calm Calm -- 30.34 in1027.4 mb - 0.00 in0.0 mm 0.00 in0.0 mm
08:40 AM 41.7°F5.4°C 39.6°F4.2°C 92% Calm Calm -- 30.34 in1027.4 mb - 0.00 in0.0 mm 0.00 in0.0 mm
08:50 AM 43.0°F6.1°C 40.3°F4.6°C 90% Calm Calm -- 30.34 in1027.4 mb - 0.00 in0.0 mm 0.00 in0.0 mm
09:00 AM 44.5°F6.9°C 40.9°F4.9°C 87% Calm Calm -- 30.33 in1027.1 mb - 0.00 in0.0 mm 0.00 in0.0 mm
09:10 AM 45.5°F7.5°C 40.6°F4.8°C 83% Calm Calm -- 30.33 in1027.1 mb - 0.00 in0.0 mm 0.00 in0.0 mm
09:20 AM 47.0°F8.3°C 41.4°F5.2°C 81% Calm Calm -- 30.33 in1027.1 mb - 0.00 in0.0 mm 0.00 in0.0 mm
09:30 AM 48.5°F9.2°C 41.9°F5.5°C 78% 3.5 mph N5.6 kmh N 3.5 mph5.6 kmh 30.33 in1027.1 mb - 0.00 in0.0 mm 0.00 in0.0 mm
09:40 AM 50.2°F10.1°C 42.2°F5.7°C 74% 2.3 mph N3.7 kmh N 3.5 mph5.6 kmh 30.32 in1026.8 mb - 0.00 in0.0 mm 0.00 in0.0 mm
09:50 AM 51.7°F10.9°C 41.9°F5.5°C 69% 2.3 mph NNW3.7 kmh NNW 2.3 mph3.7 kmh 30.32 in1026.8 mb - 0.00 in0.0 mm 0.00 in0.0 mm
10:00 AM 52.6°F11.4°C 40.8°F4.9°C 64% 2.3 mph WSW3.7 kmh WSW 3.5 mph5.6 kmh 30.32 in1026.8 mb - 0.00 in0.0 mm 0.00 in0.0 mm
10:10 AM 53.3°F11.8°C 41.4°F5.2°C 64% 2.3 mph NW3.7 kmh NW 3.5 mph5.6 kmh 30.32 in1026.8 mb - 0.00 in0.0 mm 0.00 in0.0 mm
10:20 AM 54.4°F12.4°C 41.6°F5.3°C 62% 3.5 mph NW5.6 kmh NW 3.5 mph5.6 kmh 30.32 in1026.8 mb - 0.00 in0.0 mm 0.00 in0.0 mm
10:30 AM 55.4°F13.0°C 42.6°F5.9°C 62% 4.6 mph NW7.4 kmh NW 5.8 mph9.3 kmh 30.31 in1026.4 mb - 0.00 in0.0 mm 0.00 in0.0 mm
10:40 AM 56.4°F13.6°C 43.1°F6.2°C 61% 2.3 mph NW3.7 kmh NW 3.5 mph5.6 kmh 30.31 in1026.4 mb - 0.00 in0.0 mm 0.00 in0.0 mm
10:50 AM 57.6°F14.2°C 43.4°F6.3°C 59% 3.5 mph WNW5.6 kmh WNW 3.5 mph5.6 kmh 30.30 in1026.1 mb - 0.00 in0.0 mm 0.00 in0.0 mm
11:00 AM 58.7°F14.8°C 44.0°F6.7°C 58% 2.3 mph NNW3.7 kmh NNW 3.5 mph5.6 kmh 30.30 in1026.1 mb - 0.00 in0.0 mm 0.00 in0.0 mm
11:10 AM 60.9°F16.1°C 41.6°F5.3°C 49% 3.5 mph WSW5.6 kmh WSW 3.5 mph5.6 kmh 30.30 in1026.1 mb - 0.00 in0.0 mm 0.00 in0.0 mm
11:20 AM 62.7°F17.1°C 40.5°F4.7°C 44% 1.2 mph SE1.9 kmh SE 2.3 mph3.7 kmh 30.29 in1025.7 mb - 0.00 in0.0 mm 0.00 in0.0 mm
11:30 AM 63.5°F17.5°C 37.4°F3.0°C 38% 1.2 mph ESE1.9 kmh ESE 4.6 mph7.4 kmh 30.29 in1025.7 mb - 0.00 in0.0 mm 0.00 in0.0 mm
11:40 AM 65.8°F18.8°C 35.8°F2.1°C 33% 1.2 mph ESE1.9 kmh ESE 3.5 mph5.6 kmh 30.29 in1025.7 mb - 0.00 in0.0 mm 0.00 in0.0 mm
11:50 AM 66.3°F19.1°C 36.3°F2.4°C 33% 3.5 mph ESE5.6 kmh ESE 6.9 mph11.1 kmh 30.28 in1025.4 mb - 0.00 in0.0 mm 0.00 in0.0 mm
12:00 PM 66.9°F19.4°C 36.8°F2.7°C 33% 2.3 mph ESE3.7 kmh ESE 4.6 mph7.4 kmh 30.28 in1025.4 mb - 0.00 in0.0 mm 0.00 in0.0 mm
12:10 PM 66.5°F19.2°C 34.1°F1.2°C 30% 1.2 mph SE1.9 kmh SE 10.4 mph16.7 kmh 30.27 in1025.1 mb - 0.00 in0.0 mm 0.00 in0.0 mm
12:20 PM 67.5°F19.7°C 34.1°F1.2°C 29% 5.8 mph SE9.3 kmh SE 10.4 mph16.7 kmh 30.27 in1025.1 mb - 0.00 in0.0 mm 0.00 in0.0 mm
12:30 PM 67.7°F19.8°C 33.4°F0.8°C 28% 4.6 mph NE7.4 kmh NE 6.9 mph11.1 kmh 30.26 in1024.7 mb - 0.00 in0.0 mm 0.00 in0.0 mm
12:40 PM 68.8°F20.4°C 34.4°F1.3°C 28% 5.8 mph ESE9.3 kmh ESE 11.5 mph18.5 kmh 30.25 in1024.4 mb - 0.00 in0.0 mm 0.00 in0.0 mm
12:50 PM 69.2°F20.7°C 34.7°F1.5°C 28% 3.5 mph E5.6 kmh E 5.8 mph9.3 kmh 30.25 in1024.4 mb - 0.00 in0.0 mm 0.00 in0.0 mm
01:00 PM 70.0°F21.1°C 35.4°F1.9°C 28% 1.2 mph ESE1.9 kmh ESE 3.5 mph5.6 kmh 30.24 in1024.0 mb - 0.00 in0.0 mm 0.00 in0.0 mm
01:10 PM 69.1°F20.6°C 30.8°F-0.7°C 24% 6.9 mph E11.1 kmh E 11.5 mph18.5 kmh 30.24 in1024.0 mb - 0.00 in0.0 mm 0.00 in0.0 mm
01:20 PM 70.4°F21.3°C 33.9°F1.1°C 26% 1.2 mph E1.9 kmh E 3.5 mph5.6 kmh 30.23 in1023.7 mb - 0.00 in0.0 mm 0.00 in0.0 mm
01:30 PM 70.4°F21.3°C 31.9°F-0.1°C 24% 2.3 mph ESE3.7 kmh ESE 3.5 mph5.6 kmh 30.23 in1023.7 mb - 0.00 in0.0 mm 0.00 in0.0 mm
01:40 PM 72.1°F22.3°C 33.3°F0.7°C 24% 1.2 mph ESE1.9 kmh ESE 5.8 mph9.3 kmh 30.23 in1023.7 mb - 0.00 in0.0 mm 0.00 in0.0 mm
01:50 PM 71.8°F22.1°C 33.0°F0.6°C 24% 5.8 mph E9.3 kmh E 16.1 mph25.9 kmh 30.23 in1023.7 mb - 0.00 in0.0 mm 0.00 in0.0 mm
02:00 PM 71.2°F21.8°C 31.5°F-0.3°C 23% 6.9 mph SE11.1 kmh SE 11.5 mph18.5 kmh 30.22 in1023.4 mb - 0.00 in0.0 mm 0.00 in0.0 mm
02:10 PM 72.9°F22.7°C 36.0°F2.2°C 26% 1.2 mph ESE1.9 kmh ESE 3.5 mph5.6 kmh 30.22 in1023.4 mb - 0.00 in0.0 mm 0.00 in0.0 mm
02:20 PM 74.3°F23.5°C 34.1°F1.2°C 23% 2.3 mph E3.7 kmh E 9.2 mph14.8 kmh 30.22 in1023.4 mb - 0.00 in0.0 mm 0.00 in0.0 mm
02:30 PM 72.1°F22.3°C 31.1°F-0.5°C 22% 4.6 mph SE7.4 kmh SE 5.8 mph9.3 kmh 30.21 in1023.0 mb - 0.00 in0.0 mm 0.00 in0.0 mm
02:40 PM 72.8°F22.7°C 32.8°F0.4°C 23% 2.3 mph SE3.7 kmh SE 11.5 mph18.5 kmh 30.21 in1023.0 mb - 0.00 in0.0 mm 0.00 in0.0 mm
02:50 PM 73.2°F22.9°C 32.0°F0.0°C 22% 3.5 mph SE5.6 kmh SE 6.9 mph11.1 kmh 30.20 in1022.7 mb - 0.00 in0.0 mm 0.00 in0.0 mm
03:00 PM 73.3°F22.9°C 29.7°F-1.3°C 20% 3.5 mph E5.6 kmh E 8.1 mph13.0 kmh 30.20 in1022.7 mb - 0.00 in0.0 mm 0.00 in0.0 mm
03:10 PM 73.0°F22.8°C 30.8°F-0.7°C 21% 3.5 mph E5.6 kmh E 3.5 mph5.6 kmh 30.20 in1022.7 mb - 0.00 in0.0 mm 0.00 in0.0 mm
03:20 PM 73.4°F23.0°C 32.2°F0.1°C 22% 2.3 mph SE3.7 kmh SE 5.8 mph9.3 kmh 30.20 in1022.7 mb - 0.00 in0.0 mm 0.00 in0.0 mm
03:30 PM 74.2°F23.4°C 30.5°F-0.8°C 20% 4.6 mph SE7.4 kmh SE 9.2 mph14.8 kmh 30.19 in1022.4 mb - 0.00 in0.0 mm 0.00 in0.0 mm
03:40 PM 73.0°F22.8°C 30.7°F-0.7°C 21% 2.3 mph SE3.7 kmh SE 3.5 mph5.6 kmh 30.19 in1022.4 mb - 0.00 in0.0 mm 0.00 in0.0 mm
03:50 PM 73.6°F23.1°C 31.3°F-0.4°C 21% 3.5 mph ESE5.6 kmh ESE 3.5 mph5.6 kmh 30.19 in1022.4 mb - 0.00 in0.0 mm 0.00 in0.0 mm
04:00 PM 74.1°F23.4°C 32.8°F0.4°C 22% 2.3 mph E3.7 kmh E 5.8 mph9.3 kmh 30.18 in1022.0 mb - 0.00 in0.0 mm 0.00 in0.0 mm
04:10 PM 74.7°F23.7°C 32.1°F0.1°C 21% 4.6 mph E7.4 kmh E 9.2 mph14.8 kmh 30.18 in1022.0 mb - 0.00 in0.0 mm 0.00 in0.0 mm
04:20 PM 74.1°F23.4°C 27.9°F-2.3°C 18% 2.3 mph SSE3.7 kmh SSE 3.5 mph5.6 kmh 30.18 in1022.0 mb - 0.00 in0.0 mm 0.00 in0.0 mm
04:30 PM 73.2°F22.9°C 28.5°F-1.9°C 19% 3.5 mph SE5.6 kmh SE 3.5 mph5.6 kmh 30.18 in1022.0 mb - 0.00 in0.0 mm 0.00 in0.0 mm
04:40 PM 74.1°F23.4°C 29.2°F-1.6°C 19% 5.8 mph E9.3 kmh E 10.4 mph16.7 kmh 30.18 in1022.0 mb - 0.00 in0.0 mm 0.00 in0.0 mm
04:50 PM 74.1°F23.4°C 30.5°F-0.8°C 20% 2.3 mph E3.7 kmh E 5.8 mph9.3 kmh 30.18 in1022.0 mb - 0.00 in0.0 mm 0.00 in0.0 mm
05:00 PM 74.2°F23.4°C 31.8°F-0.1°C 21% 1.2 mph SE1.9 kmh SE 2.3 mph3.7 kmh 30.18 in1022.0 mb - 0.00 in0.0 mm 0.00 in0.0 mm
05:10 PM 74.2°F23.4°C 30.6°F-0.8°C 20% 2.3 mph NE3.7 kmh NE 9.2 mph14.8 kmh 30.18 in1022.0 mb - 0.00 in0.0 mm 0.00 in0.0 mm
05:20 PM 74.3°F23.5°C 31.8°F-0.1°C 21% 4.6 mph SSE7.4 kmh SSE 10.4 mph16.7 kmh 30.18 in1022.0 mb - 0.00 in0.0 mm 0.00 in0.0 mm
05:30 PM 74.5°F23.6°C 32.0°F0.0°C 21% 2.3 mph ESE3.7 kmh ESE 4.6 mph7.4 kmh 30.17 in1021.7 mb - 0.00 in0.0 mm 0.00 in0.0 mm
05:40 PM 73.5°F23.1°C 33.4°F0.8°C 23% 1.2 mph SE1.9 kmh SE 4.6 mph7.4 kmh 30.18 in1022.0 mb - 0.00 in0.0 mm 0.00 in0.0 mm
05:50 PM 72.9°F22.7°C 35.0°F1.7°C 25% 3.5 mph NW5.6 kmh NW 4.6 mph7.4 kmh 30.18 in1022.0 mb - 0.00 in0.0 mm 0.00 in0.0 mm
06:00 PM 73.4°F23.0°C 32.2°F0.1°C 22% 1.2 mph NE1.9 kmh NE 2.3 mph3.7 kmh 30.18 in1022.0 mb - 0.00 in0.0 mm 0.00 in0.0 mm
06:10 PM 73.8°F23.2°C 32.6°F0.3°C 22% 2.3 mph ENE3.7 kmh ENE 3.5 mph5.6 kmh 30.18 in1022.0 mb - 0.00 in0.0 mm 0.00 in0.0 mm
06:20 PM 72.7°F22.6°C 33.8°F1.0°C 24% 2.3 mph SE3.7 kmh SE 4.6 mph7.4 kmh 30.18 in1022.0 mb - 0.00 in0.0 mm 0.00 in0.0 mm
06:30 PM 72.0°F22.2°C 31.1°F-0.5°C 22% 6.9 mph ESE11.1 kmh ESE 10.4 mph16.7 kmh 30.18 in1022.0 mb - 0.00 in0.0 mm 0.00 in0.0 mm
06:40 PM 71.6°F22.0°C 31.8°F-0.1°C 23% 4.6 mph ESE7.4 kmh ESE 10.4 mph16.7 kmh 30.17 in1021.7 mb - 0.00 in0.0 mm 0.00 in0.0 mm
06:50 PM 70.7°F21.5°C 32.1°F0.1°C 24% 5.8 mph E9.3 kmh E 12.7 mph20.4 kmh 30.17 in1021.7 mb - 0.00 in0.0 mm 0.00 in0.0 mm
07:00 PM 70.4°F21.3°C 32.9°F0.5°C 25% 2.3 mph ESE3.7 kmh ESE 6.9 mph11.1 kmh 30.17 in1021.7 mb - 0.00 in0.0 mm 0.00 in0.0 mm
07:10 PM 69.8°F21.0°C 32.4°F0.2°C 25% 2.3 mph SSE3.7 kmh SSE 3.5 mph5.6 kmh 30.17 in1021.7 mb - 0.00 in0.0 mm 0.00 in0.0 mm
07:20 PM 69.2°F20.7°C 32.8°F0.4°C 26% 3.5 mph ESE5.6 kmh ESE 4.6 mph7.4 kmh 30.17 in1021.7 mb - 0.00 in0.0 mm 0.00 in0.0 mm
07:30 PM 68.3°F20.2°C 33.9°F1.1°C 28% 3.5 mph E5.6 kmh E 3.5 mph5.6 kmh 30.17 in1021.7 mb - 0.00 in0.0 mm 0.00 in0.0 mm
07:40 PM 67.5°F19.7°C 33.2°F0.7°C 28% 2.3 mph N3.7 kmh N 3.5 mph5.6 kmh 30.17 in1021.7 mb - 0.00 in0.0 mm 0.00 in0.0 mm
07:50 PM 66.7°F19.3°C 34.2°F1.2°C 30% 1.2 mph N1.9 kmh N 1.2 mph1.9 kmh 30.17 in1021.7 mb - 0.00 in0.0 mm 0.00 in0.0 mm
08:00 PM 65.8°F18.8°C 34.3°F1.3°C 31% 1.2 mph N1.9 kmh N 3.5 mph5.6 kmh 30.17 in1021.7 mb - 0.00 in0.0 mm 0.00 in0.0 mm
08:10 PM 64.9°F18.3°C 39.3°F4.1°C 39% Calm Calm -- 30.17 in1021.7 mb - 0.00 in0.0 mm 0.00 in0.0 mm
08:20 PM 63.4°F17.4°C 39.9°F4.4°C 42% Calm Calm -- 30.17 in1021.7 mb - 0.00 in0.0 mm 0.00 in0.0 mm
08:30 PM 61.4°F16.3°C 41.0°F5.0°C 47% Calm Calm -- 30.17 in1021.7 mb - 0.00 in0.0 mm 0.00 in0.0 mm
08:40 PM 60.4°F15.8°C 41.2°F5.1°C 49% 1.2 mph ENE1.9 kmh ENE 2.3 mph3.7 kmh 30.18 in1022.0 mb - 0.00 in0.0 mm 0.00 in0.0 mm
08:50 PM 59.3°F15.2°C 41.2°F5.1°C 51% Calm Calm 2.3 mph3.7 kmh 30.18 in1022.0 mb - 0.00 in0.0 mm 0.00 in0.0 mm
09:00 PM 58.3°F14.6°C 39.2°F4.0°C 49% Calm Calm 3.5 mph5.6 kmh 30.18 in1022.0 mb - 0.00 in0.0 mm 0.00 in0.0 mm
09:10 PM 57.4°F14.1°C 40.9°F4.9°C 54% Calm Calm 3.5 mph5.6 kmh 30.18 in1022.0 mb - 0.00 in0.0 mm 0.00 in0.0 mm
09:20 PM 56.4°F13.6°C 42.2°F5.7°C 59% 1.2 mph NNE1.9 kmh NNE 1.2 mph1.9 kmh 30.18 in1022.0 mb - 0.00 in0.0 mm 0.00 in0.0 mm
09:30 PM 56.0°F13.3°C 41.4°F5.2°C 58% 2.3 mph NNE3.7 kmh NNE 3.5 mph5.6 kmh 30.18 in1022.0 mb - 0.00 in0.0 mm 0.00 in0.0 mm
09:40 PM 55.7°F13.2°C 40.7°F4.8°C 57% 1.2 mph SE1.9 kmh SE 3.5 mph5.6 kmh 30.18 in1022.0 mb - 0.00 in0.0 mm 0.00 in0.0 mm
09:50 PM 58.8°F14.9°C 35.1°F1.7°C 41% 1.2 mph SE1.9 kmh SE 2.3 mph3.7 kmh 30.18 in1022.0 mb - 0.00 in0.0 mm 0.00 in0.0 mm
10:00 PM 59.3°F15.2°C 34.3°F1.3°C 39% 2.3 mph ESE3.7 kmh ESE 4.6 mph7.4 kmh 30.18 in1022.0 mb - 0.00 in0.0 mm 0.00 in0.0 mm
10:10 PM 59.2°F15.1°C 33.6°F0.9°C 38% 3.5 mph E5.6 kmh E 10.4 mph16.7 kmh 30.18 in1022.0 mb - 0.00 in0.0 mm 0.00 in0.0 mm
10:20 PM 59.2°F15.1°C 33.6°F0.9°C 38% 3.5 mph E5.6 kmh E 6.9 mph11.1 kmh 30.18 in1022.0 mb - 0.00 in0.0 mm 0.00 in0.0 mm
10:30 PM 59.6°F15.3°C 33.3°F0.7°C 37% 2.3 mph E3.7 kmh E 2.3 mph3.7 kmh 30.18 in1022.0 mb - 0.00 in0.0 mm 0.00 in0.0 mm
10:40 PM 59.8°F15.4°C 32.8°F0.4°C 36% 3.5 mph ESE5.6 kmh ESE 11.5 mph18.5 kmh 30.18 in1022.0 mb - 0.00 in0.0 mm 0.00 in0.0 mm
10:50 PM 60.5°F15.8°C 32.7°F0.4°C 35% 3.5 mph E5.6 kmh E 4.6 mph7.4 kmh 30.17 in1021.7 mb - 0.00 in0.0 mm 0.00 in0.0 mm
11:00 PM 61.1°F16.2°C 31.8°F-0.1°C 33% 8.1 mph ESE13.0 kmh ESE 11.5 mph18.5 kmh 30.18 in1022.0 mb - 0.00 in0.0 mm 0.00 in0.0 mm
11:10 PM 61.1°F16.2°C 31.8°F-0.1°C 33% 6.9 mph E11.1 kmh E 12.7 mph20.4 kmh 30.17 in1021.7 mb - 0.00 in0.0 mm 0.00 in0.0 mm
11:20 PM 61.6°F16.4°C 32.2°F0.1°C 33% 6.9 mph E11.1 kmh E 17.3 mph27.8 kmh 30.17 in1021.7 mb - 0.00 in0.0 mm 0.00 in0.0 mm
11:30 PM 61.4°F16.3°C 32.0°F0.0°C 33% 6.9 mph ESE11.1 kmh ESE 17.3 mph27.8 kmh 30.17 in1021.7 mb - 0.00 in0.0 mm 0.00 in0.0 mm
11:40 PM 61.6°F16.4°C 31.4°F-0.3°C 32% 6.9 mph E11.1 kmh E 16.1 mph25.9 kmh 30.18 in1022.0 mb - 0.00 in0.0 mm 0.00 in0.0 mm
11:50 PM 61.5°F16.4°C 32.1°F0.1°C 33% 5.8 mph ESE9.3 kmh ESE 11.5 mph18.5 kmh 30.18 in1022.0 mb - 0.00 in0.0 mm 0.00 in0.0 mm